Flight Track Log - Related Links

Times and Time Zones

All times are in EDT time to prevent confusion due to time zone crossing. See the CTL18 flight status page for this flight to view local times or setup timezone preferences in your user account.


Time Position Orientation Groundspeed Altitude Reporting Facility
EDT Latitude Longitude Course Direction KTS MPH feet Rate Location/Type
Tue 09:06:57 PM 42.2150 -83.5692 229° Southwest 104 120 1,900  Level Cleveland Center
Tue 09:08:04 PM 42.1914 -83.5961 220° Southwest 101 116 2,900 563 Climbing Cleveland Center
Tue 09:09:05 PM 42.1578 -83.6028 188° South 145 167 3,100 49 Climbing Cleveland Center
Tue 09:10:06 PM 42.1161 -83.6036 181° South 149 171 3,000 -49 Descending Cleveland Center
Tue 09:11:07 PM 42.0742 -83.6100 186° South 152 175 3,000 52 Level Cleveland Center
Tue 09:12:01 PM 42.0394 -83.5917 159° South 170 196 3,100 50 Climbing Cleveland Center
Tue 09:13:08 PM 42.0161 -83.5233 115° Southeast 185 213 3,100  Level Cleveland Center
Tue 09:14:09 PM 41.9989 -83.4556 109° East 184 212 3,100 -49 Level Cleveland Center
Tue 09:15:10 PM 41.9839 -83.3906 107° East 191 220 3,000 -49 Descending Cleveland Center
Tue 09:16:11 PM 41.9647 -83.3200 110° East 186 214 3,000 197 Level Cleveland Center
Tue 09:17:12 PM 41.9453 -83.2606 114° Southeast 176 203 3,400 496 Climbing Cleveland Center
Tue 09:18:12 PM 41.9322 -83.2014 107° East 160 184 4,000 645 Climbing Cleveland Center
Tue 09:19:13 PM 41.9167 -83.1422 109° East 157 181 4,700 569 Climbing Cleveland Center
Tue 09:20:08 PM 41.8992 -83.0939 116° Southeast 159 183 5,100 171 Climbing Cleveland Center
Tue 09:21:33 PM 41.8781 -83.0067 108° East 181 208 5,100 -47 Level Cleveland Center
Tue 09:22:15 PM 41.8644 -82.9586 111° Southeast 182 209 5,000 -58 Descending Cleveland Center
Tue 09:23:16 PM 41.8469 -82.8939 110° East 181 208 5,000 66 Level Cleveland Center
Tue 09:23:46 PM 41.8392 -82.8686 112° Southeast 180 207 5,100  Climbing Cleveland Center
Tue 09:24:04 PM 41.8333 -82.8489 112° Southeast 180 207 5,000 -76 Descending Cleveland Center
Tue 09:25:05 PM 41.8136 -82.7842 112° Southeast 181 208 5,000  Level Cleveland Center
Tue 09:26:06 PM 41.7964 -82.7167 109° East 183 211 5,000  Level Cleveland Center
Tue 09:27:06 PM 41.7828 -82.6522 106° East 181 208 5,000 50 Level Cleveland Center
Tue 09:28:07 PM 41.7653 -82.5903 111° Southeast 178 205 5,100 49 Climbing Cleveland Center
Tue 09:29:08 PM 41.7475 -82.5286 111° Southeast 177 204 5,100  Level Cleveland Center
Tue 09:30:14 PM 41.7297 -82.4611 109° East 176 203 5,100 -50 Level Cleveland Center
Tue 09:31:09 PM 41.7142 -82.4022 109° East 182 209 5,000 -52 Descending Cleveland Center
Tue 09:32:09 PM 41.6964 -82.3406 111° Southeast 175 201 5,000 -99 Level Cleveland Center
Tue 09:33:10 PM 41.6828 -82.2792 107° East 178 205 4,800 -344 Descending Cleveland Center
Tue 09:34:11 PM 41.6669 -82.2175 109° East 179 206 4,300 -496 Descending Cleveland Center
Tue 09:35:11 PM 41.6533 -82.1450 104° East 187 215 3,800 -496 Descending Cleveland Center
Tue 09:36:12 PM 41.6417 -82.0781 103° East 186 214 3,300 -496 Descending Cleveland Center
Tue 09:37:12 PM 41.6239 -82.0108 109° East 181 208 2,800 -545 Descending Cleveland Center
Tue 09:38:13 PM 41.6119 -81.9467 104° East 182 209 2,200 -393 Descending Cleveland Center
Tue 09:39:14 PM 41.5961 -81.8881 110° East 167 192 2,000 -198 Descending Cleveland Center
Tue 09:40:14 PM 41.5736 -81.8350 120° Southeast 159 183 1,800 -198 Descending Cleveland Center
Tue 09:41:15 PM 41.5533 -81.7817 117° Southeast 147 169 1,600 -149 Descending Cleveland Center
Tue 09:42:15 PM 41.5644 -81.7375 71° East 150 173 1,500 -198 Descending Cleveland Center
Tue 09:43:16 PM 41.5586 -81.6931 100° East 115 132 1,200 -281 Descending Cleveland Center
Tue 09:44:23 PM 41.5317 -81.6678 145° Southeast 102 117 900 -269 Descending Cleveland Center

Login

Don't have an account? Register now (free) for customized features, flight alerts, and more!